createdAt,value
2022-08-22T16:19:27.889Z,101500.47
2022-08-22T16:21:54.217Z,101510.41
2022-08-22T16:24:23.849Z,101506.09
2022-08-22T16:26:51.604Z,101501.75
2022-08-22T16:29:20.846Z,101500.91
2022-08-22T16:31:47.143Z,101501.44
2022-08-22T16:34:16.668Z,101501.56
2022-08-22T16:37:11.050Z,101508.44
2022-08-22T16:39:43.394Z,101508.50
2022-08-22T16:42:12.875Z,101504.00
2022-08-22T16:45:05.209Z,101503.31
2022-08-22T16:47:40.129Z,101505.06
2022-08-22T16:50:09.451Z,101506.63
2022-08-22T16:52:51.990Z,101504.88
2022-08-22T16:55:30.326Z,101504.81
2022-08-22T16:58:08.986Z,101507.50
2022-08-22T17:00:58.038Z,101508.78
2022-08-22T17:03:46.371Z,101507.13
2022-08-22T17:06:28.470Z,101501.81
2022-08-22T17:09:10.310Z,101503.69
2022-08-22T17:12:16.636Z,101500.75
2022-08-22T17:15:08.025Z,101497.34
2022-08-22T17:18:14.084Z,101505.16
2022-08-22T17:21:11.567Z,101505.13
2022-08-22T17:24:02.472Z,101502.91
2022-08-22T17:26:34.886Z,101513.81
2022-08-22T17:29:25.959Z,101498.63
2022-08-22T17:32:15.147Z,101509.38
2022-08-22T17:35:03.954Z,101514.25
2022-08-22T17:37:58.416Z,101515.91
2022-08-22T17:40:53.962Z,101524.09
2022-08-22T17:43:54.595Z,101522.03
2022-08-22T17:46:49.658Z,101526.63
2022-08-22T17:49:24.696Z,101528.38
2022-08-22T17:52:13.311Z,101523.13
2022-08-22T17:54:48.279Z,101529.56
2022-08-22T17:57:29.087Z,101528.38
2022-08-22T18:00:11.494Z,101521.44
2022-08-22T18:02:45.431Z,101520.09
2022-08-22T18:05:17.686Z,101527.13
2022-08-22T18:08:37.368Z,101525.47
2022-08-22T18:11:09.666Z,101534.50
2022-08-22T18:13:54.572Z,101530.66
2022-08-22T18:16:32.712Z,101531.66
2022-08-22T18:19:13.177Z,101526.03
2022-08-22T18:22:09.478Z,101532.19
2022-08-22T18:24:50.738Z,101533.13
2022-08-22T18:27:35.270Z,101524.59
2022-08-22T18:30:10.991Z,101526.34
2022-08-22T18:32:48.271Z,101535.28
2022-08-22T18:35:25.102Z,101537.41
2022-08-22T18:38:19.160Z,101533.94
2022-08-22T18:40:52.387Z,101544.47
2022-08-22T18:43:25.958Z,101541.91
2022-08-22T18:45:52.274Z,101541.22
2022-08-22T18:48:29.740Z,101553.47
2022-08-22T18:51:27.560Z,101548.56
2022-08-22T18:53:57.032Z,101555.56
2022-08-22T18:56:55.562Z,101554.63
2022-08-22T18:59:43.598Z,101561.78
2022-08-22T19:02:40.654Z,101557.16
2022-08-22T19:05:27.606Z,101562.78
2022-08-22T19:08:00.120Z,101558.56
2022-08-22T19:10:52.663Z,101558.91
2022-08-22T19:13:42.842Z,101553.63
2022-08-22T19:16:27.934Z,101557.06
2022-08-22T19:19:02.559Z,101555.59
2022-08-22T19:21:48.762Z,101551.88
2022-08-22T19:24:27.038Z,101557.19
2022-08-22T19:27:18.755Z,101558.16
2022-08-22T19:29:45.053Z,101557.28
2022-08-22T19:32:46.186Z,101556.41
2022-08-22T19:35:26.075Z,101562.19
2022-08-22T19:38:06.125Z,101564.50
2022-08-22T19:40:44.367Z,101562.91
2022-08-22T19:43:33.557Z,101558.59
2022-08-22T19:46:05.733Z,101561.94
2022-08-22T19:48:43.478Z,101559.22
2022-08-22T19:51:19.222Z,101561.03
2022-08-22T19:54:00.843Z,101567.25
2022-08-22T19:57:02.856Z,101567.81
2022-08-22T19:59:50.525Z,101575.81
2022-08-22T20:02:32.092Z,101573.16
2022-08-22T20:05:23.279Z,101576.66
2022-08-22T20:07:53.040Z,101577.53
2022-08-22T20:10:40.815Z,101578.22
2022-08-22T20:13:20.848Z,101584.59
2022-08-22T20:16:06.004Z,101583.56
2022-08-22T20:19:01.908Z,101581.88
2022-08-22T20:21:50.034Z,101594.25
2022-08-22T20:24:34.401Z,101583.97
2022-08-22T20:27:15.355Z,101581.53
2022-08-22T20:29:49.924Z,101593.53
2022-08-22T20:32:19.068Z,101585.78
2022-08-22T20:34:47.909Z,101575.44
2022-08-22T20:37:32.420Z,101578.97
2022-08-22T20:40:55.377Z,101581.34
2022-08-22T20:43:20.528Z,101586.41
2022-08-22T20:46:04.308Z,101582.03
2022-08-22T20:48:40.973Z,101583.88
2022-08-22T20:51:09.322Z,101580.47
2022-08-22T20:53:39.540Z,101580.16
2022-08-22T20:56:07.989Z,101586.25
2022-08-22T20:58:40.141Z,101584.53
2022-08-22T21:01:11.248Z,101580.78
2022-08-22T21:03:43.137Z,101570.13
2022-08-22T21:06:21.468Z,101579.69
2022-08-22T21:09:12.246Z,101572.81
2022-08-22T21:11:50.274Z,101579.81
2022-08-22T21:14:24.445Z,101574.41
2022-08-22T21:16:51.636Z,101579.63
2022-08-22T21:19:26.875Z,101583.94
2022-08-22T21:21:53.788Z,101579.56
2022-08-22T21:24:20.488Z,101581.28
2022-08-22T21:27:00.539Z,101586.44
2022-08-22T21:29:32.862Z,101585.53
2022-08-22T21:32:16.700Z,101583.84
2022-08-22T21:34:46.882Z,101585.72
2022-08-22T21:37:25.447Z,101584.81
2022-08-22T21:40:03.036Z,101579.53
2022-08-22T21:42:36.918Z,101590.06
2022-08-22T21:45:25.399Z,101590.78
2022-08-22T21:47:52.703Z,101589.22
2022-08-22T21:50:19.178Z,101585.69
2022-08-22T21:52:54.462Z,101587.47
2022-08-22T21:55:28.826Z,101591.94
2022-08-22T21:58:05.058Z,101593.75
2022-08-22T22:00:49.518Z,101593.63
2022-08-22T22:03:18.818Z,101588.28
2022-08-22T22:05:45.397Z,101591.84
2022-08-22T22:08:12.333Z,101597.31
2022-08-22T22:10:42.123Z,101595.41
2022-08-22T22:13:09.110Z,101593.63
2022-08-22T22:15:46.890Z,101592.16
2022-08-22T22:18:16.597Z,101592.94
2022-08-22T22:20:44.171Z,101592.94
2022-08-22T22:23:10.688Z,101598.34
2022-08-22T22:25:42.223Z,101607.94
2022-08-22T22:28:21.400Z,101605.47
2022-08-22T22:30:51.539Z,101608.03
2022-08-22T22:33:19.628Z,101601.06
2022-08-22T22:35:47.345Z,101596.63
2022-08-22T22:38:14.634Z,101602.91
2022-08-22T22:40:42.136Z,101601.94
2022-08-22T22:43:10.255Z,101598.44
2022-08-22T22:45:37.390Z,101601.19
2022-08-22T22:48:05.591Z,101606.50
2022-08-22T22:50:33.324Z,101598.44
2022-08-22T22:52:59.692Z,101607.31
2022-08-22T22:55:26.267Z,101599.53
2022-08-22T22:57:59.224Z,101601.41
2022-08-22T23:00:29.205Z,101603.03
2022-08-22T23:02:57.587Z,101600.56
2022-08-22T23:05:23.989Z,101604.06
2022-08-22T23:07:50.496Z,101605.81
2022-08-22T23:10:21.758Z,101619.72
2022-08-22T23:12:48.595Z,101616.22
2022-08-22T23:15:15.575Z,101611.88
2022-08-22T23:17:42.532Z,101609.22
2022-08-22T23:20:09.222Z,101605.81
2022-08-22T23:22:35.594Z,101610.25
2022-08-22T23:25:02.263Z,101612.91
2022-08-22T23:27:28.651Z,101622.59
2022-08-22T23:29:55.070Z,101621.03
2022-08-22T23:32:21.459Z,101618.34
2022-08-22T23:34:48.928Z,101618.28
2022-08-22T23:37:18.851Z,101622.59
2022-08-22T23:39:45.376Z,101625.41
2022-08-22T23:42:12.462Z,101626.19
2022-08-22T23:44:41.021Z,101634.00
2022-08-22T23:47:09.534Z,101626.19
2022-08-22T23:49:38.357Z,101632.44
2022-08-22T23:52:06.162Z,101639.38
2022-08-22T23:54:33.803Z,101639.38
2022-08-22T23:57:02.444Z,101634.13
2022-08-22T23:59:38.529Z,101637.72
